createdAt,value
2017-09-05T00:00:42.748Z,3.90
2017-09-05T00:05:47.202Z,3.90
2017-09-05T00:10:55.456Z,3.57
2017-09-05T00:21:18.614Z,4.90
2017-09-05T00:26:22.466Z,4.10
2017-09-05T00:31:26.953Z,4.20
2017-09-05T00:36:33.626Z,3.73
2017-09-05T00:41:38.465Z,3.70
2017-09-05T00:51:51.606Z,4.50
2017-09-05T00:56:58.108Z,4.37
2017-09-05T01:02:03.070Z,4.20
2017-09-05T01:07:10.654Z,4.07
2017-09-05T01:12:18.959Z,4.07
2017-09-05T01:22:35.067Z,4.60
2017-09-05T01:27:48.853Z,4.90
2017-09-05T01:32:56.252Z,4.60
2017-09-05T01:38:06.545Z,4.80
2017-09-05T01:43:10.695Z,4.57
2017-09-05T01:48:16.657Z,4.20
2017-09-05T01:53:24.750Z,4.10
2017-09-05T01:58:30.155Z,5.13
2017-09-05T02:08:47.178Z,4.93
2017-09-05T02:13:55.714Z,4.53
2017-09-05T02:18:59.767Z,4.40
2017-09-05T02:24:05.639Z,5.30
2017-09-05T02:29:10.314Z,5.17
2017-09-05T02:34:19.321Z,4.93
2017-09-05T02:39:23.382Z,4.60
2017-09-05T02:49:38.227Z,5.60
2017-09-05T02:54:42.866Z,4.90
2017-09-05T02:59:48.110Z,4.73
2017-09-05T03:04:55.181Z,4.27
2017-09-05T03:10:00.444Z,3.93
2017-09-05T03:15:03.482Z,4.30
2017-09-05T03:20:10.111Z,5.50
2017-09-05T03:25:15.914Z,4.27
2017-09-05T03:30:24.815Z,6.13
2017-09-05T03:40:40.647Z,6.40
2017-09-05T03:50:57.163Z,5.40
2017-09-05T03:56:04.710Z,5.30
2017-09-05T04:01:13.196Z,5.47
2017-09-05T04:06:20.128Z,5.93
2017-09-05T04:11:26.864Z,5.70
2017-09-05T04:16:35.687Z,5.93
2017-09-05T04:21:43.999Z,5.20
2017-09-05T04:26:49.409Z,5.50
2017-09-05T04:31:55.508Z,5.50
2017-09-05T04:42:09.093Z,7.40
2017-09-05T04:47:13.150Z,6.20
2017-09-05T04:52:19.103Z,6.90
2017-09-05T04:57:23.459Z,8.10
2017-09-05T05:02:37.171Z,8.67
2017-09-05T05:07:44.559Z,9.80
2017-09-05T05:12:48.269Z,11.00
2017-09-05T05:17:53.924Z,11.60
2017-09-05T05:22:57.770Z,10.50
2017-09-05T05:28:06.305Z,7.47
2017-09-05T05:33:11.048Z,9.20
2017-09-05T05:38:16.654Z,9.10
2017-09-05T05:43:25.804Z,8.20
2017-09-05T05:53:36.663Z,9.80
2017-09-05T05:58:43.029Z,10.83
2017-09-05T06:03:49.547Z,9.80
2017-09-05T06:08:54.894Z,9.57
2017-09-05T06:13:59.727Z,9.20
2017-09-05T06:24:12.710Z,10.43
2017-09-05T06:29:17.450Z,11.63
2017-09-05T06:34:25.304Z,11.83
2017-09-05T06:39:30.445Z,12.33
2017-09-05T06:44:34.210Z,11.63
2017-09-05T06:49:40.582Z,11.80
2017-09-05T06:54:44.660Z,13.10
2017-09-05T06:59:49.186Z,13.23
2017-09-05T07:04:54.461Z,12.20
2017-09-05T07:10:03.070Z,13.97
2017-09-05T07:15:08.383Z,14.77
2017-09-05T07:20:15.742Z,13.50
2017-09-05T07:25:20.471Z,15.77
2017-09-05T07:30:28.275Z,13.70
2017-09-05T07:35:31.737Z,14.30
2017-09-05T07:40:35.896Z,12.90
2017-09-05T07:45:41.398Z,13.40
2017-09-05T07:50:45.077Z,11.20
2017-09-05T08:00:58.168Z,12.37
2017-09-05T08:06:04.392Z,13.20
2017-09-05T08:11:07.698Z,12.13
2017-09-05T08:16:14.878Z,12.37
2017-09-05T08:21:19.253Z,12.07
2017-09-05T08:26:22.774Z,13.20
2017-09-05T08:31:26.976Z,11.93
2017-09-05T08:47:06.112Z,13.03
2017-09-05T08:57:31.218Z,11.20
2017-09-05T09:13:03.854Z,12.83
2017-09-05T09:18:10.514Z,12.30
2017-09-05T09:23:16.993Z,11.00
2017-09-05T09:28:28.637Z,10.30
2017-09-05T09:33:35.685Z,10.93
2017-09-05T09:38:43.795Z,11.47
2017-09-05T09:54:11.874Z,10.33
2017-09-05T09:59:18.402Z,11.03
2017-09-05T10:04:22.442Z,8.50
2017-09-05T10:14:40.207Z,8.60
2017-09-05T10:19:48.739Z,7.90
2017-09-05T10:25:02.551Z,7.20
2017-09-05T10:30:11.558Z,7.00
2017-09-05T10:35:27.134Z,6.47
2017-09-05T10:40:37.411Z,5.60
2017-09-05T10:45:43.464Z,5.50
2017-09-05T10:56:01.551Z,5.50
2017-09-05T11:01:11.479Z,6.20
2017-09-05T11:11:30.299Z,6.10
2017-09-05T11:16:44.019Z,5.43
2017-09-05T11:21:55.900Z,6.90
2017-09-05T11:27:05.534Z,6.00
2017-09-05T11:32:10.591Z,4.67
2017-09-05T11:37:18.053Z,5.20
2017-09-05T11:42:27.771Z,4.97
2017-09-05T11:52:41.004Z,4.90
2017-09-05T11:57:46.505Z,4.63
2017-09-05T12:08:19.683Z,4.60
2017-09-05T12:13:24.574Z,3.87
2017-09-05T12:18:35.335Z,4.20
2017-09-05T12:29:00.166Z,3.37
2017-09-05T12:39:16.448Z,3.20
2017-09-05T12:44:25.297Z,2.70
2017-09-05T12:49:36.674Z,2.80
2017-09-05T12:54:46.298Z,2.60
2017-09-05T12:59:54.989Z,2.40
2017-09-05T13:15:30.524Z,2.53
2017-09-05T13:20:35.686Z,5.60
2017-09-05T13:25:43.116Z,6.80
2017-09-05T13:30:51.653Z,2.27
2017-09-05T13:35:57.045Z,2.40
2017-09-05T13:46:15.681Z,2.40
2017-09-05T13:56:33.498Z,2.40
2017-09-05T14:01:37.583Z,2.67
2017-09-05T14:06:46.573Z,2.03
2017-09-05T14:11:55.645Z,2.10
2017-09-05T14:17:01.627Z,2.80
2017-09-05T14:22:05.076Z,2.37
2017-09-05T14:27:11.000Z,1.90
2017-09-05T14:32:17.669Z,2.30
2017-09-05T14:37:22.497Z,2.10
2017-09-05T14:42:27.374Z,1.83
2017-09-05T14:47:32.024Z,3.13
2017-09-05T14:52:37.808Z,2.27
2017-09-05T14:57:45.924Z,2.70
2017-09-05T15:02:50.371Z,2.40
2017-09-05T15:07:57.367Z,2.40
2017-09-05T15:13:03.512Z,2.47
2017-09-05T15:18:07.315Z,2.37
2017-09-05T15:23:11.487Z,2.50
2017-09-05T15:28:14.872Z,2.70
2017-09-05T15:33:19.095Z,2.63
2017-09-05T15:38:23.715Z,3.10
2017-09-05T15:43:29.352Z,3.10
2017-09-05T15:48:33.356Z,4.83
2017-09-05T15:53:38.978Z,3.10
2017-09-05T15:58:44.689Z,2.60
2017-09-05T16:03:50.488Z,2.93
2017-09-05T16:08:54.977Z,2.90
2017-09-05T16:14:00.336Z,2.67
2017-09-05T16:19:07.727Z,2.80
2017-09-05T16:29:45.264Z,2.73
2017-09-05T16:34:50.024Z,2.70
2017-09-05T16:39:56.066Z,2.47
2017-09-05T16:50:17.964Z,2.70
2017-09-05T16:55:34.003Z,2.67
2017-09-05T17:00:40.750Z,2.40
2017-09-05T17:05:54.894Z,2.83
2017-09-05T17:11:07.274Z,3.13
2017-09-05T17:21:22.930Z,3.50
2017-09-05T17:26:28.760Z,2.83
2017-09-05T17:31:35.286Z,6.40
2017-09-05T17:41:48.253Z,3.50
2017-09-05T17:52:07.579Z,3.23
2017-09-05T18:12:59.202Z,3.27
2017-09-05T18:18:06.193Z,3.27
2017-09-05T18:23:13.046Z,3.83
2017-09-05T18:33:28.533Z,4.03
2017-09-05T18:38:35.420Z,4.07
2017-09-05T18:43:38.647Z,4.93
2017-09-05T18:48:46.484Z,5.63
2017-09-05T18:53:51.026Z,6.03
2017-09-05T18:58:56.325Z,11.00
2017-09-05T19:04:02.047Z,5.20
2017-09-05T19:09:07.769Z,5.07
2017-09-05T19:14:11.762Z,4.50
2017-09-05T19:19:17.854Z,4.40
2017-09-05T19:24:25.703Z,4.40
2017-09-05T19:29:31.586Z,3.80
2017-09-05T19:34:38.043Z,4.10
2017-09-05T19:39:44.850Z,4.20
2017-09-05T19:44:49.250Z,4.03
2017-09-05T19:49:54.824Z,4.30
2017-09-05T19:55:00.914Z,4.03
2017-09-05T20:00:03.868Z,4.17
2017-09-05T20:05:14.939Z,4.10
2017-09-05T20:10:20.519Z,4.13
2017-09-05T20:15:27.915Z,4.27
2017-09-05T20:20:33.731Z,3.97
2017-09-05T20:25:39.749Z,4.40
2017-09-05T20:30:47.112Z,4.43
2017-09-05T20:35:51.143Z,4.40
2017-09-05T20:40:54.928Z,5.23
2017-09-05T20:46:00.072Z,4.73
2017-09-05T20:51:10.418Z,7.50
2017-09-05T20:56:16.402Z,4.30
2017-09-05T21:01:23.906Z,4.50
2017-09-05T21:06:30.593Z,3.90
2017-09-05T21:11:38.734Z,4.47
2017-09-05T21:21:55.266Z,5.10
2017-09-05T21:27:02.197Z,4.80
2017-09-05T21:32:07.765Z,4.27
2017-09-05T21:37:16.109Z,5.13
2017-09-05T21:42:33.129Z,5.67
2017-09-05T21:47:37.541Z,5.27
2017-09-05T21:52:40.843Z,5.67
2017-09-05T21:57:46.626Z,5.07
2017-09-05T22:02:52.518Z,6.63
2017-09-05T22:07:58.265Z,6.07
2017-09-05T22:13:06.919Z,7.47
2017-09-05T22:18:12.953Z,7.03
2017-09-05T22:23:22.455Z,7.70
2017-09-05T22:33:40.713Z,9.30
2017-09-05T22:38:48.550Z,10.70
2017-09-05T22:49:02.521Z,11.67
2017-09-05T22:59:15.210Z,11.80
2017-09-05T23:09:27.581Z,11.70
2017-09-05T23:14:32.632Z,14.27
2017-09-05T23:24:47.067Z,12.33
2017-09-05T23:29:56.595Z,11.27
2017-09-05T23:35:02.212Z,13.70
2017-09-05T23:40:11.527Z,13.03
2017-09-05T23:45:17.474Z,14.73
2017-09-05T23:50:25.136Z,13.87
2017-09-05T23:55:30.308Z,14.33
